sensor_id;sensor_type;location;lat;lon;timestamp;pressure;altitude;pressure_sealevel;temperature;humidity
72024;BME280;59889;50.700;5.440;2023-04-03T00:01:34;101213.52;;;20.45;35.75
72024;BME280;59889;50.700;5.440;2023-04-03T00:03:59;101216.72;;;20.31;35.65
72024;BME280;59889;50.700;5.440;2023-04-03T00:06:24;101217.29;;;20.75;35.70
72024;BME280;59889;50.700;5.440;2023-04-03T00:08:49;101220.41;;;20.39;35.51
72024;BME280;59889;50.700;5.440;2023-04-03T00:11:14;101220.02;;;20.27;35.68
72024;BME280;59889;50.700;5.440;2023-04-03T00:13:39;101216.65;;;20.29;35.66
72024;BME280;59889;50.700;5.440;2023-04-03T00:16:05;101214.21;;;20.20;35.75
72024;BME280;59889;50.700;5.440;2023-04-03T00:18:30;101211.16;;;20.41;35.77
72024;BME280;59889;50.700;5.440;2023-04-03T00:20:55;101213.20;;;20.47;35.71
72024;BME280;59889;50.700;5.440;2023-04-03T00:23:20;101213.21;;;20.70;35.71
72024;BME280;59889;50.700;5.440;2023-04-03T00:25:45;101212.67;;;20.38;35.80
72024;BME280;59889;50.700;5.440;2023-04-03T00:28:10;101215.17;;;20.14;35.80
72024;BME280;59889;50.700;5.440;2023-04-03T00:30:35;101217.44;;;20.60;35.52
72024;BME280;59889;50.700;5.440;2023-04-03T00:33:00;101217.72;;;20.33;35.55
72024;BME280;59889;50.700;5.440;2023-04-03T00:35:25;101217.86;;;20.28;35.60
72024;BME280;59889;50.700;5.440;2023-04-03T00:37:51;101213.41;;;20.36;35.80
72024;BME280;59889;50.700;5.440;2023-04-03T00:40:15;101217.17;;;20.27;35.62
72024;BME280;59889;50.700;5.440;2023-04-03T00:42:42;101213.48;;;20.23;35.66
72024;BME280;59889;50.700;5.440;2023-04-03T00:45:23;101213.68;;;20.17;35.73
72024;BME280;59889;50.700;5.440;2023-04-03T00:47:31;101213.92;;;20.40;35.74
72024;BME280;59889;50.700;5.440;2023-04-03T00:49:57;101219.06;;;20.68;35.70
72024;BME280;59889;50.700;5.440;2023-04-03T00:52:25;101218.56;;;20.23;35.62
72024;BME280;59889;50.700;5.440;2023-04-03T00:54:49;101216.10;;;20.22;35.65
72024;BME280;59889;50.700;5.440;2023-04-03T00:57:12;101219.88;;;20.15;35.70
72024;BME280;59889;50.700;5.440;2023-04-03T00:59:41;101221.76;;;20.49;35.61
72024;BME280;59889;50.700;5.440;2023-04-03T01:02:02;101227.36;;;20.46;35.64
72024;BME280;59889;50.700;5.440;2023-04-03T01:04:28;101232.47;;;20.10;35.78
72024;BME280;59889;50.700;5.440;2023-04-03T01:06:52;101234.97;;;20.60;35.75
72024;BME280;59889;50.700;5.440;2023-04-03T01:09:17;101236.38;;;20.27;35.87
72024;BME280;59889;50.700;5.440;2023-04-03T01:11:42;101237.82;;;20.19;35.93
72024;BME280;59889;50.700;5.440;2023-04-03T01:14:07;101238.76;;;20.30;35.83
72024;BME280;59889;50.700;5.440;2023-04-03T01:16:32;101237.92;;;20.30;35.82
72024;BME280;59889;50.700;5.440;2023-04-03T01:18:58;101239.15;;;20.23;35.60
72024;BME280;59889;50.700;5.440;2023-04-03T01:21:41;101241.28;;;20.24;35.87
72024;BME280;59889;50.700;5.440;2023-04-03T01:23:56;101249.06;;;20.08;35.75
72024;BME280;59889;50.700;5.440;2023-04-03T01:26:13;101252.16;;;20.36;35.70
72024;BME280;59889;50.700;5.440;2023-04-03T01:28:38;101250.53;;;20.38;35.35
72024;BME280;59889;50.700;5.440;2023-04-03T01:31:09;101251.65;;;20.45;35.56
72024;BME280;59889;50.700;5.440;2023-04-03T01:33:28;101248.26;;;20.12;35.65
72024;BME280;59889;50.700;5.440;2023-04-03T01:35:53;101249.84;;;20.04;35.79
72024;BME280;59889;50.700;5.440;2023-04-03T01:38:18;101250.38;;;20.09;35.73
72024;BME280;59889;50.700;5.440;2023-04-03T01:40:43;101252.39;;;20.01;35.82
72024;BME280;59889;50.700;5.440;2023-04-03T01:43:08;101252.76;;;19.99;35.86
72024;BME280;59889;50.700;5.440;2023-04-03T01:45:33;101257.13;;;20.34;35.70
72024;BME280;59889;50.700;5.440;2023-04-03T01:47:59;101255.07;;;20.49;35.83
72024;BME280;59889;50.700;5.440;2023-04-03T01:50:24;101252.80;;;20.40;35.91
72024;BME280;59889;50.700;5.440;2023-04-03T01:52:49;101255.89;;;20.21;35.86
72024;BME280;59889;50.700;5.440;2023-04-03T01:55:15;101256.19;;;20.02;36.12
72024;BME280;59889;50.700;5.440;2023-04-03T01:57:39;101249.88;;;20.44;35.87
72024;BME280;59889;50.700;5.440;2023-04-03T02:00:06;101250.46;;;20.36;35.97
72024;BME280;59889;50.700;5.440;2023-04-03T02:02:30;101250.71;;;20.43;35.56
72024;BME280;59889;50.700;5.440;2023-04-03T02:04:55;101248.83;;;20.02;36.08
72024;BME280;59889;50.700;5.440;2023-04-03T02:07:20;101248.30;;;20.37;35.94
72024;BME280;59889;50.700;5.440;2023-04-03T02:09:45;101246.63;;;20.04;36.05
72024;BME280;59889;50.700;5.440;2023-04-03T02:12:10;101242.77;;;20.20;36.15
72024;BME280;59889;50.700;5.440;2023-04-03T02:14:35;101243.14;;;20.10;35.98
72024;BME280;59889;50.700;5.440;2023-04-03T02:17:00;101243.45;;;20.09;35.96
72024;BME280;59889;50.700;5.440;2023-04-03T02:19:25;101241.18;;;20.48;35.76
72024;BME280;59889;50.700;5.440;2023-04-03T02:21:50;101243.60;;;20.34;35.94
72024;BME280;59889;50.700;5.440;2023-04-03T02:24:15;101245.22;;;19.77;36.06
72024;BME280;59889;50.700;5.440;2023-04-03T02:26:40;101244.27;;;20.41;35.86
72024;BME280;59889;50.700;5.440;2023-04-03T02:29:06;101246.14;;;20.26;36.00
72024;BME280;59889;50.700;5.440;2023-04-03T02:31:31;101247.75;;;20.29;35.97
72024;BME280;59889;50.700;5.440;2023-04-03T02:33:56;101247.34;;;20.03;36.00
72024;BME280;59889;50.700;5.440;2023-04-03T02:36:21;101247.00;;;19.71;36.10
72024;BME280;59889;50.700;5.440;2023-04-03T02:38:46;101250.51;;;19.96;36.06
72024;BME280;59889;50.700;5.440;2023-04-03T02:41:11;101250.14;;;20.11;35.87
72024;BME280;59889;50.700;5.440;2023-04-03T02:43:36;101249.84;;;20.02;36.01
72024;BME280;59889;50.700;5.440;2023-04-03T02:46:01;101250.00;;;19.90;35.85
72024;BME280;59889;50.700;5.440;2023-04-03T02:48:26;101249.97;;;19.76;36.02
72024;BME280;59889;50.700;5.440;2023-04-03T02:50:51;101251.40;;;20.13;35.85
72024;BME280;59889;50.700;5.440;2023-04-03T02:53:17;101249.21;;;20.13;35.83
72024;BME280;59889;50.700;5.440;2023-04-03T02:55:42;101251.24;;;20.31;35.89
72024;BME280;59889;50.700;5.440;2023-04-03T02:58:07;101250.65;;;19.98;35.71
72024;BME280;59889;50.700;5.440;2023-04-03T03:00:32;101249.61;;;20.31;35.87
72024;BME280;59889;50.700;5.440;2023-04-03T03:02:57;101251.47;;;20.38;35.78
72024;BME280;59889;50.700;5.440;2023-04-03T03:05:22;101249.76;;;20.19;35.72
72024;BME280;59889;50.700;5.440;2023-04-03T03:07:47;101251.12;;;20.46;35.68
72024;BME280;59889;50.700;5.440;2023-04-03T03:10:12;101254.61;;;19.91;35.76
72024;BME280;59889;50.700;5.440;2023-04-03T03:12:37;101255.06;;;20.20;35.72
72024;BME280;59889;50.700;5.440;2023-04-03T03:15:03;101257.41;;;20.17;35.71
72024;BME280;59889;50.700;5.440;2023-04-03T03:17:27;101258.04;;;19.94;35.70
72024;BME280;59889;50.700;5.440;2023-04-03T03:19:53;101260.45;;;19.91;35.74
72024;BME280;59889;50.700;5.440;2023-04-03T03:22:18;101260.29;;;20.41;35.69
72024;BME280;59889;50.700;5.440;2023-04-03T03:24:43;101263.11;;;20.09;35.79
72024;BME280;59889;50.700;5.440;2023-04-03T03:27:08;101268.44;;;19.99;35.59
72024;BME280;59889;50.700;5.440;2023-04-03T03:29:33;101269.10;;;20.39;35.70
72024;BME280;59889;50.700;5.440;2023-04-03T03:31:58;101271.20;;;20.38;35.71
72024;BME280;59889;50.700;5.440;2023-04-03T03:34:23;101275.26;;;20.32;35.76
72024;BME280;59889;50.700;5.440;2023-04-03T03:36:48;101276.98;;;20.06;35.50
72024;BME280;59889;50.700;5.440;2023-04-03T03:39:14;101279.46;;;20.19;35.62
72024;BME280;59889;50.700;5.440;2023-04-03T03:41:38;101274.43;;;20.38;35.67
72024;BME280;59889;50.700;5.440;2023-04-03T03:44:04;101275.21;;;20.06;35.79
72024;BME280;59889;50.700;5.440;2023-04-03T03:46:29;101274.75;;;20.40;35.61
72024;BME280;59889;50.700;5.440;2023-04-03T03:48:54;101275.15;;;20.27;35.81
72024;BME280;59889;50.700;5.440;2023-04-03T03:51:19;101274.50;;;19.77;35.81
72024;BME280;59889;50.700;5.440;2023-04-03T03:53:44;101271.52;;;19.78;35.79
72024;BME280;59889;50.700;5.440;2023-04-03T03:56:09;101273.81;;;20.26;35.76
72024;BME280;59889;50.700;5.440;2023-04-03T03:58:34;101273.59;;;20.14;35.62
72024;BME280;59889;50.700;5.440;2023-04-03T04:01:00;101272.87;;;19.81;35.71
72024;BME280;59889;50.700;5.440;2023-04-03T04:03:24;101268.40;;;20.39;35.58
72024;BME280;59889;50.700;5.440;2023-04-03T04:05:49;101265.58;;;20.06;35.70
72024;BME280;59889;50.700;5.440;2023-04-03T04:08:14;101269.32;;;20.39;33.93
72024;BME280;59889;50.700;5.440;2023-04-03T04:10:40;101268.85;;;20.31;33.73
72024;BME280;59889;50.700;5.440;2023-04-03T04:13:05;101269.17;;;19.82;34.03
72024;BME280;59889;50.700;5.440;2023-04-03T04:15:30;101268.98;;;19.85;33.62
72024;BME280;59889;50.700;5.440;2023-04-03T04:17:55;101273.37;;;19.97;33.28
72024;BME280;59889;50.700;5.440;2023-04-03T04:20:20;101278.13;;;19.71;32.97
72024;BME280;59889;50.700;5.440;2023-04-03T04:22:45;101277.58;;;19.97;32.62
72024;BME280;59889;50.700;5.440;2023-04-03T04:25:10;101279.62;;;19.97;32.37
72024;BME280;59889;50.700;5.440;2023-04-03T04:27:36;101282.62;;;19.88;32.22
72024;BME280;59889;50.700;5.440;2023-04-03T04:30:01;101281.55;;;19.64;32.20
72024;BME280;59889;50.700;5.440;2023-04-03T04:32:26;101281.94;;;20.00;32.75
72024;BME280;59889;50.700;5.440;2023-04-03T04:34:51;101280.55;;;19.68;33.55
72024;BME280;59889;50.700;5.440;2023-04-03T04:37:16;101284.70;;;19.67;33.86
72024;BME280;59889;50.700;5.440;2023-04-03T04:39:41;101284.29;;;19.79;34.14
72024;BME280;59889;50.700;5.440;2023-04-03T04:42:06;101286.96;;;19.88;34.13
72024;BME280;59889;50.700;5.440;2023-04-03T04:44:32;101287.85;;;19.87;34.21
72024;BME280;59889;50.700;5.440;2023-04-03T04:46:57;101288.37;;;20.15;34.16
72024;BME280;59889;50.700;5.440;2023-04-03T04:49:22;101288.95;;;19.80;34.47
72024;BME280;59889;50.700;5.440;2023-04-03T04:51:47;101292.98;;;19.72;34.61
72024;BME280;59889;50.700;5.440;2023-04-03T04:54:12;101292.65;;;19.81;34.57
72024;BME280;59889;50.700;5.440;2023-04-03T04:56:37;101293.45;;;19.95;34.84
72024;BME280;59889;50.700;5.440;2023-04-03T04:59:02;101293.40;;;20.07;34.81
72024;BME280;59889;50.700;5.440;2023-04-03T05:01:27;101294.19;;;19.71;35.02
72024;BME280;59889;50.700;5.440;2023-04-03T05:03:52;101295.44;;;19.66;35.14
72024;BME280;59889;50.700;5.440;2023-04-03T05:06:17;101296.74;;;19.80;34.96
72024;BME280;59889;50.700;5.440;2023-04-03T05:08:43;101297.11;;;19.81;34.98
72024;BME280;59889;50.700;5.440;2023-04-03T05:11:08;101302.45;;;19.78;35.06
72024;BME280;59889;50.700;5.440;2023-04-03T05:13:33;101302.59;;;19.94;35.18
72024;BME280;59889;50.700;5.440;2023-04-03T05:15:58;101305.65;;;19.75;35.14
72024;BME280;59889;50.700;5.440;2023-04-03T05:18:23;101304.06;;;19.72;35.19
72024;BME280;59889;50.700;5.440;2023-04-03T05:20:48;101303.99;;;19.75;35.17
72024;BME280;59889;50.700;5.440;2023-04-03T05:23:13;101303.65;;;19.93;35.25
72024;BME280;59889;50.700;5.440;2023-04-03T05:25:38;101301.96;;;19.96;35.22
72024;BME280;59889;50.700;5.440;2023-04-03T05:28:03;101305.78;;;19.69;35.28
72024;BME280;59889;50.700;5.440;2023-04-03T05:30:29;101307.69;;;19.84;35.41
72024;BME280;59889;50.700;5.440;2023-04-03T05:32:54;101308.38;;;19.63;35.38
72024;BME280;59889;50.700;5.440;2023-04-03T05:35:19;101309.24;;;19.74;35.54
72024;BME280;59889;50.700;5.440;2023-04-03T05:37:44;101312.01;;;19.87;35.36
72024;BME280;59889;50.700;5.440;2023-04-03T05:40:10;101314.03;;;19.90;35.34
72024;BME280;59889;50.700;5.440;2023-04-03T05:42:34;101312.38;;;19.91;35.34
72024;BME280;59889;50.700;5.440;2023-04-03T05:45:00;101313.91;;;19.49;35.56
72024;BME280;59889;50.700;5.440;2023-04-03T05:47:25;101313.95;;;19.68;35.36
72024;BME280;59889;50.700;5.440;2023-04-03T05:49:51;101315.84;;;19.70;35.33
72024;BME280;59889;50.700;5.440;2023-04-03T05:52:21;101316.63;;;19.72;35.30
72024;BME280;59889;50.700;5.440;2023-04-03T05:54:41;101314.64;;;19.70;35.31
72024;BME280;59889;50.700;5.440;2023-04-03T05:57:06;101313.59;;;19.65;35.36
72024;BME280;59889;50.700;5.440;2023-04-03T05:59:31;101313.90;;;19.67;35.34
72024;BME280;59889;50.700;5.440;2023-04-03T06:01:56;101314.32;;;19.53;35.55
72024;BME280;59889;50.700;5.440;2023-04-03T06:04:21;101312.41;;;19.27;35.80
72024;BME280;59889;50.700;5.440;2023-04-03T06:06:49;101312.47;;;19.53;35.61
72024;BME280;59889;50.700;5.440;2023-04-03T06:09:12;101313.77;;;19.94;35.40
72024;BME280;59889;50.700;5.440;2023-04-03T06:11:37;101314.82;;;19.76;35.31
72024;BME280;59889;50.700;5.440;2023-04-03T06:14:02;101314.85;;;19.73;35.40
72024;BME280;59889;50.700;5.440;2023-04-03T06:16:27;101321.67;;;19.74;35.40
72024;BME280;59889;50.700;5.440;2023-04-03T06:18:52;101323.00;;;20.09;35.20
72024;BME280;59889;50.700;5.440;2023-04-03T06:21:17;101324.95;;;19.77;35.27
72024;BME280;59889;50.700;5.440;2023-04-03T06:23:42;101325.71;;;19.90;35.40
72024;BME280;59889;50.700;5.440;2023-04-03T06:26:07;101328.04;;;19.78;35.27
72024;BME280;59889;50.700;5.440;2023-04-03T06:28:32;101329.32;;;19.74;35.33
72024;BME280;59889;50.700;5.440;2023-04-03T06:30:58;101330.18;;;19.71;35.37
72024;BME280;59889;50.700;5.440;2023-04-03T06:33:23;101328.15;;;19.62;35.49
72024;BME280;59889;50.700;5.440;2023-04-03T06:35:48;101330.92;;;19.20;36.10
72024;BME280;59889;50.700;5.440;2023-04-03T06:38:13;101333.46;;;19.88;35.49
72024;BME280;59889;50.700;5.440;2023-04-03T06:40:38;101334.19;;;19.77;35.62
72024;BME280;59889;50.700;5.440;2023-04-03T06:43:03;101337.39;;;20.07;35.23
72024;BME280;59889;50.700;5.440;2023-04-03T06:45:28;101337.42;;;19.66;35.46
72024;BME280;59889;50.700;5.440;2023-04-03T06:47:53;101336.58;;;19.58;35.27
72024;BME280;59889;50.700;5.440;2023-04-03T06:50:19;101333.63;;;19.76;35.36
72024;BME280;59889;50.700;5.440;2023-04-03T06:52:44;101340.17;;;19.97;35.12
72024;BME280;59889;50.700;5.440;2023-04-03T06:55:10;101342.87;;;20.60;34.91
72024;BME280;59889;50.700;5.440;2023-04-03T06:57:35;101346.99;;;20.14;34.89
72024;BME280;59889;50.700;5.440;2023-04-03T06:59:59;101347.45;;;20.35;34.63
72024;BME280;59889;50.700;5.440;2023-04-03T07:02:24;101347.16;;;20.39;34.58
72024;BME280;59889;50.700;5.440;2023-04-03T07:04:50;101346.30;;;20.72;34.13
72024;BME280;59889;50.700;5.440;2023-04-03T07:07:15;101348.28;;;20.51;33.80
72024;BME280;59889;50.700;5.440;2023-04-03T07:09:40;101354.60;;;21.26;33.18
72024;BME280;59889;50.700;5.440;2023-04-03T07:12:05;101356.93;;;21.27;32.84
72024;BME280;59889;50.700;5.440;2023-04-03T07:14:31;101361.54;;;22.20;31.73
72024;BME280;59889;50.700;5.440;2023-04-03T07:16:55;101367.28;;;22.86;30.72
72024;BME280;59889;50.700;5.440;2023-04-03T07:19:20;101370.28;;;23.01;30.19
72024;BME280;59889;50.700;5.440;2023-04-03T07:21:45;101371.51;;;23.54;29.10
72024;BME280;59889;50.700;5.440;2023-04-03T07:24:10;101375.91;;;24.14;28.19
72024;BME280;59889;50.700;5.440;2023-04-03T07:26:35;101377.69;;;24.79;27.71
72024;BME280;59889;50.700;5.440;2023-04-03T07:29:00;101376.89;;;24.90;27.16
72024;BME280;59889;50.700;5.440;2023-04-03T07:31:25;101377.71;;;24.43;27.32
72024;BME280;59889;50.700;5.440;2023-04-03T07:33:50;101371.53;;;25.13;26.83
72024;BME280;59889;50.700;5.440;2023-04-03T07:36:20;101372.63;;;25.09;26.87
72024;BME280;59889;50.700;5.440;2023-04-03T07:38:42;101374.81;;;25.28;26.71
72024;BME280;59889;50.700;5.440;2023-04-03T07:41:11;101374.68;;;24.71;26.79
72024;BME280;59889;50.700;5.440;2023-04-03T07:43:34;101379.60;;;24.43;27.50
72024;BME280;59889;50.700;5.440;2023-04-03T07:45:59;101375.78;;;24.22;28.00
72024;BME280;59889;50.700;5.440;2023-04-03T07:48:25;101376.49;;;23.85;28.40
72024;BME280;59889;50.700;5.440;2023-04-03T07:50:50;101375.56;;;23.00;29.27
72024;BME280;59889;50.700;5.440;2023-04-03T07:53:15;101373.00;;;22.98;30.15
72024;BME280;59889;50.700;5.440;2023-04-03T07:55:40;101372.09;;;22.39;30.54
72024;BME280;59889;50.700;5.440;2023-04-03T07:58:05;101370.80;;;22.16;31.08
72024;BME280;59889;50.700;5.440;2023-04-03T08:00:30;101372.65;;;21.80;31.56
72024;BME280;59889;50.700;5.440;2023-04-03T08:02:55;101370.75;;;21.94;31.43
72024;BME280;59889;50.700;5.440;2023-04-03T08:05:21;101378.62;;;22.03;31.61
72024;BME280;59889;50.700;5.440;2023-04-03T08:07:45;101379.24;;;21.68;32.01
72024;BME280;59889;50.700;5.440;2023-04-03T08:10:10;101382.93;;;21.74;32.22
72024;BME280;59889;50.700;5.440;2023-04-03T08:12:35;101381.34;;;21.66;32.35
72024;BME280;59889;50.700;5.440;2023-04-03T08:15:00;101381.99;;;21.60;32.49
72024;BME280;59889;50.700;5.440;2023-04-03T08:17:25;101381.74;;;21.32;32.52
72024;BME280;59889;50.700;5.440;2023-04-03T08:19:50;101385.93;;;21.28;32.89
72024;BME280;59889;50.700;5.440;2023-04-03T08:22:15;101386.78;;;21.25;32.92
72024;BME280;59889;50.700;5.440;2023-04-03T08:24:40;101385.52;;;21.03;33.21
72024;BME280;59889;50.700;5.440;2023-04-03T08:27:05;101383.22;;;20.85;33.14
72024;BME280;59889;50.700;5.440;2023-04-03T08:29:30;101380.72;;;21.11;33.14
72024;BME280;59889;50.700;5.440;2023-04-03T08:31:55;101378.51;;;20.79;33.53
72024;BME280;59889;50.700;5.440;2023-04-03T08:34:21;101379.85;;;21.06;33.21
72024;BME280;59889;50.700;5.440;2023-04-03T08:36:46;101378.79;;;20.68;33.67
72024;BME280;59889;50.700;5.440;2023-04-03T08:39:11;101376.50;;;20.72;33.64
72024;BME280;59889;50.700;5.440;2023-04-03T08:41:37;101381.37;;;20.95;33.67
72024;BME280;59889;50.700;5.440;2023-04-03T08:44:09;101380.94;;;20.44;33.70
72024;BME280;59889;50.700;5.440;2023-04-03T08:46:35;101382.64;;;20.74;33.64
72024;BME280;59889;50.700;5.440;2023-04-03T08:48:51;101379.32;;;20.59;33.81
72024;BME280;59889;50.700;5.440;2023-04-03T08:51:19;101376.13;;;20.69;33.68
72024;BME280;59889;50.700;5.440;2023-04-03T08:53:44;101379.16;;;20.77;33.60
72024;BME280;59889;50.700;5.440;2023-04-03T08:56:09;101378.18;;;20.61;33.78
72024;BME280;59889;50.700;5.440;2023-04-03T08:58:38;101378.25;;;20.39;34.06
72024;BME280;59889;50.700;5.440;2023-04-03T09:01:00;101380.08;;;20.65;33.78
72024;BME280;59889;50.700;5.440;2023-04-03T09:03:22;101377.66;;;20.87;33.78
72024;BME280;59889;50.700;5.440;2023-04-03T09:05:50;101379.25;;;20.69;34.06
72024;BME280;59889;50.700;5.440;2023-04-03T09:08:21;101374.08;;;20.51;34.04
72024;BME280;59889;50.700;5.440;2023-04-03T09:10:38;101375.89;;;20.62;33.83
72024;BME280;59889;50.700;5.440;2023-04-03T09:13:05;101372.79;;;20.49;34.07
72024;BME280;59889;50.700;5.440;2023-04-03T09:15:27;101371.65;;;20.58;33.98
72024;BME280;59889;50.700;5.440;2023-04-03T09:17:59;101374.11;;;20.52;34.14
72024;BME280;59889;50.700;5.440;2023-04-03T09:20:22;101378.49;;;20.32;34.48
72024;BME280;59889;50.700;5.440;2023-04-03T09:22:43;101375.63;;;20.49;34.55
72024;BME280;59889;50.700;5.440;2023-04-03T09:25:14;101377.62;;;20.53;34.52
72024;BME280;59889;50.700;5.440;2023-04-03T09:27:32;101373.50;;;20.76;34.24
72024;BME280;59889;50.700;5.440;2023-04-03T09:29:58;101369.95;;;20.36;34.46
72024;BME280;59889;50.700;5.440;2023-04-03T09:32:27;101368.61;;;20.09;34.76
72024;BME280;59889;50.700;5.440;2023-04-03T09:34:48;101368.10;;;20.45;34.65
72024;BME280;59889;50.700;5.440;2023-04-03T09:39:49;101367.82;;;20.19;34.66
72024;BME280;59889;50.700;5.440;2023-04-03T09:42:11;101367.94;;;20.13;34.76
72024;BME280;59889;50.700;5.440;2023-04-03T09:44:30;101364.08;;;20.39;34.71
72024;BME280;59889;50.700;5.440;2023-04-03T09:46:53;101362.91;;;20.41;34.67
72024;BME280;59889;50.700;5.440;2023-04-03T09:49:18;101360.38;;;20.38;34.69
72024;BME280;59889;50.700;5.440;2023-04-03T09:51:43;101361.18;;;20.05;34.83
72024;BME280;59889;50.700;5.440;2023-04-03T09:54:24;101360.49;;;19.98;34.91
72024;BME280;59889;50.700;5.440;2023-04-03T09:56:34;101357.67;;;20.25;34.60
72024;BME280;59889;50.700;5.440;2023-04-03T09:59:11;101360.42;;;20.53;34.81
72024;BME280;59889;50.700;5.440;2023-04-03T10:01:27;101356.94;;;20.08;34.77
72024;BME280;59889;50.700;5.440;2023-04-03T10:04:03;101359.19;;;20.51;34.54
72024;BME280;59889;50.700;5.440;2023-04-03T10:06:22;101360.57;;;20.04;34.82
72024;BME280;59889;50.700;5.440;2023-04-03T10:08:39;101359.30;;;20.18;34.91
72024;BME280;59889;50.700;5.440;2023-04-03T10:11:10;101362.99;;;19.91;34.94
72024;BME280;59889;50.700;5.440;2023-04-03T10:13:29;101363.68;;;20.30;34.48
72024;BME280;59889;50.700;5.440;2023-04-03T10:15:57;101365.26;;;20.65;34.63
72024;BME280;59889;50.700;5.440;2023-04-03T10:18:29;101360.55;;;20.27;34.80
72024;BME280;59889;50.700;5.440;2023-04-03T10:20:48;101359.73;;;20.42;34.92
72024;BME280;59889;50.700;5.440;2023-04-03T10:23:18;101355.26;;;20.09;35.05
72024;BME280;59889;50.700;5.440;2023-04-03T10:25:40;101347.61;;;20.21;34.62
72024;BME280;59889;50.700;5.440;2023-04-03T10:28:01;101348.71;;;20.01;34.84
72024;BME280;59889;50.700;5.440;2023-04-03T10:30:34;101346.64;;;20.30;34.74
72024;BME280;59889;50.700;5.440;2023-04-03T10:32:59;101341.48;;;20.45;34.56
72024;BME280;59889;50.700;5.440;2023-04-03T10:35:18;101339.34;;;20.18;34.81
72024;BME280;59889;50.700;5.440;2023-04-03T10:37:49;101341.67;;;20.62;34.59
72024;BME280;59889;50.700;5.440;2023-04-03T10:40:15;101342.51;;;20.39;34.59
72024;BME280;59889;50.700;5.440;2023-04-03T10:42:35;101341.91;;;20.54;34.68
72024;BME280;59889;50.700;5.440;2023-04-03T10:45:04;101340.35;;;20.17;34.87
72024;BME280;59889;50.700;5.440;2023-04-03T10:47:22;101345.21;;;20.07;34.97
72024;BME280;59889;50.700;5.440;2023-04-03T10:49:53;101337.80;;;20.28;34.98
72024;BME280;59889;50.700;5.440;2023-04-03T10:52:18;101335.53;;;20.29;34.98
72024;BME280;59889;50.700;5.440;2023-04-03T10:54:38;101332.47;;;20.46;34.76
72024;BME280;59889;50.700;5.440;2023-04-03T10:57:02;101330.17;;;19.91;34.82
72024;BME280;59889;50.700;5.440;2023-04-03T10:59:29;101326.21;;;20.36;34.87
72024;BME280;59889;50.700;5.440;2023-04-03T11:01:53;101317.92;;;19.67;35.09
72024;BME280;59889;50.700;5.440;2023-04-03T11:04:17;101321.57;;;20.34;34.55
72024;BME280;59889;50.700;5.440;2023-04-03T11:06:44;101323.94;;;20.28;34.93
72024;BME280;59889;50.700;5.440;2023-04-03T11:09:15;101323.71;;;20.41;34.76
72024;BME280;59889;50.700;5.440;2023-04-03T11:11:34;101322.68;;;20.29;34.90
72024;BME280;59889;50.700;5.440;2023-04-03T11:14:00;101316.25;;;20.28;34.91
72024;BME280;59889;50.700;5.440;2023-04-03T11:16:25;101311.88;;;19.96;34.98
72024;BME280;59889;50.700;5.440;2023-04-03T11:18:52;101308.67;;;20.12;34.81
72024;BME280;59889;50.700;5.440;2023-04-03T11:21:16;101312.39;;;20.24;34.94
72024;BME280;59889;50.700;5.440;2023-04-03T11:23:39;101313.34;;;20.06;34.86
72024;BME280;59889;50.700;5.440;2023-04-03T11:26:09;101312.74;;;20.13;34.78
72024;BME280;59889;50.700;5.440;2023-04-03T11:28:27;101311.26;;;20.33;34.83
72024;BME280;59889;50.700;5.440;2023-04-03T11:30:57;101307.19;;;20.44;34.70
72024;BME280;59889;50.700;5.440;2023-04-03T11:33:27;101304.80;;;20.44;34.66
72024;BME280;59889;50.700;5.440;2023-04-03T11:35:43;101303.64;;;20.10;34.80
72024;BME280;59889;50.700;5.440;2023-04-03T11:38:16;101307.09;;;19.98;34.90
72024;BME280;59889;50.700;5.440;2023-04-03T11:40:35;101298.28;;;20.07;34.80
72024;BME280;59889;50.700;5.440;2023-04-03T11:43:05;101295.58;;;19.95;34.62
72024;BME280;59889;50.700;5.440;2023-04-03T11:45:29;101288.36;;;20.14;34.65
72024;BME280;59889;50.700;5.440;2023-04-03T11:47:49;101287.65;;;20.44;34.59
72024;BME280;59889;50.700;5.440;2023-04-03T11:52:57;101282.46;;;20.09;34.72
72024;BME280;59889;50.700;5.440;2023-04-03T11:57:43;101273.77;;;20.22;34.83
72024;BME280;59889;50.700;5.440;2023-04-03T11:59:53;101271.88;;;20.00;34.52
72024;BME280;59889;50.700;5.440;2023-04-03T12:02:35;101267.51;;;20.19;34.83
72024;BME280;59889;50.700;5.440;2023-04-03T12:07:15;101264.91;;;20.36;34.69
72024;BME280;59889;50.700;5.440;2023-04-03T12:12:01;101258.96;;;20.30;34.78
72024;BME280;59889;50.700;5.440;2023-04-03T12:14:25;101252.41;;;20.07;34.72
72024;BME280;59889;50.700;5.440;2023-04-03T12:16:50;101244.23;;;20.33;34.72
72024;BME280;59889;50.700;5.440;2023-04-03T12:19:30;101250.91;;;20.07;34.76
72024;BME280;59889;50.700;5.440;2023-04-03T12:26:36;101244.39;;;20.11;34.64
72024;BME280;59889;50.700;5.440;2023-04-03T12:28:55;101237.82;;;20.16;34.87
72024;BME280;59889;50.700;5.440;2023-04-03T12:31:22;101228.67;;;20.36;34.70
72024;BME280;59889;50.700;5.440;2023-04-03T12:36:13;101222.93;;;19.74;34.90
72024;BME280;59889;50.700;5.440;2023-04-03T12:41:18;101218.26;;;20.18;34.91
72024;BME280;59889;50.700;5.440;2023-04-03T12:43:39;101222.16;;;20.15;34.67
72024;BME280;59889;50.700;5.440;2023-04-03T12:45:56;101217.19;;;20.06;34.51
72024;BME280;59889;50.700;5.440;2023-04-03T12:48:17;101218.91;;;20.12;34.71
72024;BME280;59889;50.700;5.440;2023-04-03T12:50:41;101219.07;;;20.16;34.91
72024;BME280;59889;50.700;5.440;2023-04-03T12:53:11;101210.94;;;19.64;34.94
72024;BME280;59889;50.700;5.440;2023-04-03T12:55:31;101206.39;;;20.11;34.67
72024;BME280;59889;50.700;5.440;2023-04-03T12:57:56;101211.64;;;20.04;34.76
72024;BME280;59889;50.700;5.440;2023-04-03T13:00:28;101212.81;;;20.51;34.73